createdAt,value
2018-06-21T00:02:06.600Z,6.13
2018-06-21T00:04:41.631Z,6.37
2018-06-21T00:07:20.049Z,6.60
2018-06-21T00:09:56.518Z,6.43
2018-06-21T00:12:32.084Z,6.60
2018-06-21T00:15:08.306Z,6.73
2018-06-21T00:17:45.231Z,6.43
2018-06-21T00:20:20.739Z,6.27
2018-06-21T00:22:57.937Z,6.20
2018-06-21T00:25:33.596Z,7.03
2018-06-21T00:28:10.247Z,6.90
2018-06-21T00:30:46.321Z,6.37
2018-06-21T00:33:22.352Z,6.47
2018-06-21T00:35:58.935Z,6.40
2018-06-21T00:38:37.356Z,6.37
2018-06-21T00:41:14.293Z,5.73
2018-06-21T00:43:49.852Z,6.50
2018-06-21T00:46:25.409Z,6.67
2018-06-21T00:49:01.066Z,6.57
2018-06-21T00:51:38.042Z,6.63
2018-06-21T00:54:18.188Z,6.60
2018-06-21T00:56:56.897Z,6.30
2018-06-21T00:59:32.227Z,7.00
2018-06-21T01:02:09.112Z,7.73
2018-06-21T01:04:44.866Z,7.03
2018-06-21T01:07:20.342Z,6.97
2018-06-21T01:09:57.793Z,7.23
2018-06-21T01:12:32.790Z,6.60
2018-06-21T01:15:08.998Z,6.97
2018-06-21T01:17:45.825Z,6.83
2018-06-21T01:20:21.010Z,6.80
2018-06-21T01:22:56.880Z,7.47
2018-06-21T01:25:33.425Z,7.17
2018-06-21T01:28:09.999Z,7.63
2018-06-21T01:30:46.779Z,7.80
2018-06-21T01:33:22.328Z,6.90
2018-06-21T01:36:00.534Z,7.13
2018-06-21T01:38:37.014Z,7.73
2018-06-21T01:41:12.456Z,7.30
2018-06-21T01:43:49.225Z,6.97
2018-06-21T01:46:27.601Z,6.67
2018-06-21T01:49:04.985Z,6.93
2018-06-21T01:51:40.154Z,6.90
2018-06-21T01:54:18.866Z,7.13
2018-06-21T01:56:54.543Z,7.23
2018-06-21T01:59:30.267Z,6.97
2018-06-21T02:02:07.987Z,7.23
2018-06-21T02:04:44.033Z,8.20
2018-06-21T02:07:19.557Z,7.30
2018-06-21T02:09:55.239Z,7.40
2018-06-21T02:12:30.861Z,7.77
2018-06-21T02:15:07.841Z,8.63
2018-06-21T02:17:44.108Z,8.50
2018-06-21T02:20:20.252Z,7.90
2018-06-21T02:22:56.212Z,7.73
2018-06-21T02:25:32.111Z,7.33
2018-06-21T02:28:08.125Z,8.10
2018-06-21T02:30:44.694Z,7.87
2018-06-21T02:33:22.512Z,7.77
2018-06-21T02:35:58.354Z,7.47
2018-06-21T02:38:33.295Z,8.20
2018-06-21T02:41:09.535Z,8.00
2018-06-21T02:43:46.228Z,7.20
2018-06-21T02:46:23.594Z,7.53
2018-06-21T02:48:58.840Z,8.10
2018-06-21T02:51:36.651Z,8.00
2018-06-21T02:54:12.281Z,7.80
2018-06-21T02:56:48.139Z,8.83
2018-06-21T02:59:23.777Z,8.27
2018-06-21T03:01:58.911Z,8.07
2018-06-21T03:04:34.566Z,8.60
2018-06-21T03:07:10.222Z,8.93
2018-06-21T03:09:45.965Z,8.33
2018-06-21T03:12:22.427Z,9.03
2018-06-21T03:14:58.895Z,9.17
2018-06-21T03:17:34.975Z,8.93
2018-06-21T03:20:09.306Z,9.67
2018-06-21T03:22:44.811Z,9.37
2018-06-21T03:25:21.888Z,8.40
2018-06-21T03:27:56.830Z,8.83
2018-06-21T03:30:32.587Z,7.93
2018-06-21T03:33:08.325Z,9.13
2018-06-21T03:35:43.770Z,8.90
2018-06-21T03:38:20.228Z,7.93
2018-06-21T03:40:55.486Z,8.33
2018-06-21T03:43:33.564Z,9.23
2018-06-21T03:46:08.502Z,8.97
2018-06-21T03:48:44.514Z,8.60
2018-06-21T03:51:18.660Z,8.17
2018-06-21T03:53:54.647Z,8.60
2018-06-21T03:56:30.176Z,8.67
2018-06-21T03:59:04.828Z,8.80
2018-06-21T04:01:41.778Z,8.37
2018-06-21T04:04:16.924Z,8.23
2018-06-21T04:06:52.891Z,8.07
2018-06-21T04:09:28.887Z,8.97
2018-06-21T04:12:05.088Z,8.53
2018-06-21T04:14:42.585Z,8.43
2018-06-21T04:17:19.735Z,9.07
2018-06-21T04:19:55.410Z,8.87
2018-06-21T04:22:32.415Z,8.57
2018-06-21T04:25:10.029Z,8.90
2018-06-21T04:27:45.832Z,8.30
2018-06-21T04:30:23.323Z,8.87
2018-06-21T04:32:58.778Z,8.20
2018-06-21T04:35:34.937Z,9.47
2018-06-21T04:38:12.007Z,8.90
2018-06-21T04:40:47.559Z,9.27
2018-06-21T04:43:24.106Z,8.97
2018-06-21T04:46:00.466Z,8.70
2018-06-21T04:48:37.443Z,9.73
2018-06-21T04:51:19.688Z,8.47
2018-06-21T04:53:56.845Z,9.27
2018-06-21T04:56:34.962Z,9.37
2018-06-21T04:59:11.030Z,9.00
2018-06-21T05:01:46.657Z,9.53
2018-06-21T05:04:23.014Z,9.83
2018-06-21T05:06:59.553Z,9.07
2018-06-21T05:09:35.674Z,9.40
2018-06-21T05:12:13.667Z,9.27
2018-06-21T05:14:50.688Z,9.03
2018-06-21T05:17:27.301Z,8.77
2018-06-21T05:20:01.938Z,9.27
2018-06-21T05:22:37.370Z,7.90
2018-06-21T05:25:12.770Z,8.17
2018-06-21T05:27:48.787Z,8.30
2018-06-21T05:30:24.307Z,8.43
2018-06-21T05:33:00.286Z,8.53
2018-06-21T05:35:36.634Z,8.47
2018-06-21T05:38:12.670Z,8.53
2018-06-21T05:40:48.133Z,8.85
2018-06-21T05:43:23.867Z,7.83
2018-06-21T05:46:00.236Z,8.03
2018-06-21T05:48:35.794Z,7.53
2018-06-21T05:51:12.151Z,7.70
2018-06-21T05:53:47.091Z,8.10
2018-06-21T05:56:22.755Z,7.47
2018-06-21T05:58:57.984Z,7.80
2018-06-21T06:01:33.017Z,7.70
2018-06-21T06:04:08.045Z,7.10
2018-06-21T06:06:43.996Z,7.40
2018-06-21T06:09:19.033Z,7.73
2018-06-21T06:11:54.466Z,7.90
2018-06-21T06:14:30.343Z,8.00
2018-06-21T06:17:05.358Z,7.87
2018-06-21T06:19:41.822Z,7.53
2018-06-21T06:22:16.550Z,7.73
2018-06-21T06:24:52.411Z,7.10
2018-06-21T06:27:27.119Z,7.30
2018-06-21T06:30:02.790Z,7.33
2018-06-21T06:32:38.219Z,6.70
2018-06-21T06:35:13.866Z,6.20
2018-06-21T06:37:50.109Z,6.53
2018-06-21T06:40:24.995Z,6.63
2018-06-21T06:43:01.839Z,6.63
2018-06-21T06:45:36.980Z,7.13
2018-06-21T06:48:12.618Z,7.03
2018-06-21T06:50:47.961Z,5.93
2018-06-21T06:53:25.059Z,6.20
2018-06-21T06:56:02.013Z,6.00
2018-06-21T06:58:36.966Z,6.07
2018-06-21T07:01:12.711Z,6.20
2018-06-21T07:03:47.522Z,6.80
2018-06-21T07:06:24.096Z,6.70
2018-06-21T07:09:00.152Z,6.30
2018-06-21T07:11:34.974Z,6.10
2018-06-21T07:14:12.002Z,5.97
2018-06-21T07:16:47.194Z,5.73
2018-06-21T07:19:24.998Z,5.73
2018-06-21T07:22:01.039Z,5.37
2018-06-21T07:24:35.963Z,5.63
2018-06-21T07:27:12.695Z,5.93
2018-06-21T07:29:47.984Z,5.77
2018-06-21T07:32:23.636Z,5.67
2018-06-21T07:35:00.521Z,5.60
2018-06-21T07:37:35.767Z,5.57
2018-06-21T07:40:13.092Z,5.70
2018-06-21T07:42:49.974Z,5.80
2018-06-21T07:45:25.159Z,5.30
2018-06-21T07:48:01.935Z,5.40
2018-06-21T07:50:37.181Z,5.33
2018-06-21T07:53:13.220Z,5.43
2018-06-21T07:55:49.291Z,5.40
2018-06-21T07:58:24.638Z,4.77
2018-06-21T08:00:59.964Z,5.43
2018-06-21T08:03:35.025Z,4.83
2018-06-21T08:06:12.074Z,5.10
2018-06-21T08:08:47.314Z,5.13
2018-06-21T08:11:21.750Z,5.03
2018-06-21T08:13:57.080Z,4.70
2018-06-21T08:16:33.029Z,4.80
2018-06-21T08:19:08.851Z,5.30
2018-06-21T08:21:44.437Z,4.73
2018-06-21T08:24:20.140Z,4.73
2018-06-21T08:26:56.493Z,4.30
2018-06-21T08:29:31.884Z,3.93
2018-06-21T08:32:08.147Z,3.77
2018-06-21T08:34:43.589Z,3.30
2018-06-21T08:37:20.367Z,3.20
2018-06-21T08:39:54.789Z,3.23
2018-06-21T08:42:30.218Z,3.40
2018-06-21T08:45:05.874Z,3.30
2018-06-21T08:47:41.569Z,8.20
2018-06-21T08:50:16.399Z,4.17
2018-06-21T08:52:55.678Z,23.43
2018-06-21T08:55:32.143Z,9.60
2018-06-21T08:58:07.179Z,12.40
2018-06-21T09:00:42.314Z,5.90
2018-06-21T09:03:17.242Z,6.83
2018-06-21T09:05:54.222Z,4.03
2018-06-21T09:08:30.179Z,15.43
2018-06-21T09:11:05.311Z,3.30
2018-06-21T09:13:41.072Z,3.33
2018-06-21T09:16:16.307Z,3.10
2018-06-21T09:18:52.878Z,3.13
2018-06-21T09:21:28.514Z,3.30
2018-06-21T09:24:03.574Z,3.13
2018-06-21T09:26:38.599Z,3.20
2018-06-21T09:29:14.851Z,3.93
2018-06-21T09:31:53.187Z,4.00
2018-06-21T09:34:28.195Z,3.40
2018-06-21T09:37:05.898Z,3.67
2018-06-21T09:39:48.188Z,3.80
2018-06-21T09:42:30.281Z,3.60
2018-06-21T09:45:05.418Z,3.97
2018-06-21T09:47:45.386Z,3.93
2018-06-21T09:50:21.750Z,3.43
2018-06-21T09:52:56.972Z,3.60
2018-06-21T09:55:33.250Z,3.90
2018-06-21T09:58:08.874Z,3.80
2018-06-21T10:00:50.179Z,3.60
2018-06-21T10:03:26.323Z,3.77
2018-06-21T10:06:02.482Z,3.67
2018-06-21T10:08:37.946Z,3.60
2018-06-21T10:11:14.394Z,3.80
2018-06-21T10:13:49.448Z,3.70
2018-06-21T10:16:25.373Z,4.10
2018-06-21T10:18:59.917Z,4.10
2018-06-21T10:21:35.458Z,4.10
2018-06-21T10:24:12.119Z,3.90
2018-06-21T10:26:47.357Z,4.20
2018-06-21T10:29:23.704Z,3.60
2018-06-21T10:32:00.918Z,3.97
2018-06-21T10:34:37.468Z,4.00
2018-06-21T10:37:13.839Z,3.80
2018-06-21T10:39:50.094Z,4.20
2018-06-21T10:42:25.537Z,4.40
2018-06-21T10:45:03.048Z,3.93
2018-06-21T10:47:38.837Z,4.10
2018-06-21T10:50:14.796Z,4.07
2018-06-21T10:52:51.109Z,4.03
2018-06-21T10:55:26.138Z,3.77
2018-06-21T10:58:02.290Z,4.10
2018-06-21T11:00:37.674Z,4.10
2018-06-21T11:03:13.933Z,3.90
2018-06-21T11:05:52.113Z,3.70
2018-06-21T11:08:27.449Z,3.60
2018-06-21T11:11:03.195Z,3.40
2018-06-21T11:13:39.123Z,4.00
2018-06-21T11:16:15.830Z,3.53
2018-06-21T11:18:53.315Z,3.60
2018-06-21T11:21:30.673Z,3.47
2018-06-21T11:24:07.151Z,3.33
2018-06-21T11:26:44.863Z,3.57
2018-06-21T11:29:20.938Z,3.33
2018-06-21T11:31:56.661Z,3.70
2018-06-21T11:34:33.113Z,3.20
2018-06-21T11:37:08.282Z,3.47
2018-06-21T11:39:44.333Z,3.10
2018-06-21T11:42:20.914Z,3.33
2018-06-21T11:44:56.026Z,3.43
2018-06-21T11:47:33.781Z,3.43
2018-06-21T11:50:10.113Z,3.37
2018-06-21T11:52:46.543Z,3.60
2018-06-21T11:55:23.259Z,3.43
2018-06-21T11:57:59.105Z,3.50
2018-06-21T12:00:34.798Z,3.27
2018-06-21T12:03:10.243Z,3.73
2018-06-21T12:05:46.245Z,3.87
2018-06-21T12:08:21.472Z,3.57
2018-06-21T12:10:56.395Z,4.30
2018-06-21T12:13:34.288Z,3.73
2018-06-21T12:16:11.308Z,3.60
2018-06-21T12:18:46.320Z,3.23
2018-06-21T12:21:22.210Z,3.77
2018-06-21T12:23:57.480Z,3.77
2018-06-21T12:26:33.159Z,3.27
2018-06-21T12:29:08.722Z,4.37
2018-06-21T12:31:44.345Z,4.20
2018-06-21T12:34:19.750Z,3.77
2018-06-21T12:36:55.521Z,3.40
2018-06-21T12:39:31.039Z,3.20
2018-06-21T12:42:06.124Z,3.70
2018-06-21T12:44:41.557Z,3.70
2018-06-21T12:47:17.006Z,3.20
2018-06-21T12:49:52.833Z,3.67
2018-06-21T12:52:28.164Z,3.30
2018-06-21T12:55:03.691Z,3.50
2018-06-21T12:57:39.161Z,3.67
2018-06-21T13:00:14.825Z,3.50
2018-06-21T13:02:52.744Z,3.37
2018-06-21T13:05:29.423Z,3.30
2018-06-21T13:08:05.556Z,3.33
2018-06-21T13:10:51.640Z,3.33
2018-06-21T13:13:28.435Z,3.23
2018-06-21T13:16:03.843Z,3.40
2018-06-21T13:18:40.031Z,3.37
2018-06-21T13:21:15.469Z,3.23
2018-06-21T13:23:51.237Z,3.03
2018-06-21T13:26:26.829Z,3.27
2018-06-21T13:29:02.420Z,3.30
2018-06-21T13:31:38.030Z,2.90
2018-06-21T13:34:13.015Z,3.67
2018-06-21T13:36:48.135Z,2.90
2018-06-21T13:39:23.409Z,3.20
2018-06-21T13:41:59.071Z,3.23
2018-06-21T13:44:34.746Z,2.90
2018-06-21T13:47:09.036Z,3.33
2018-06-21T13:49:44.397Z,3.23
2018-06-21T13:52:19.440Z,3.83
2018-06-21T13:54:54.785Z,3.53
2018-06-21T13:57:29.849Z,3.40
2018-06-21T14:00:05.087Z,3.20
2018-06-21T14:02:40.614Z,2.87
2018-06-21T14:05:16.246Z,3.20
2018-06-21T14:07:51.680Z,3.30
2018-06-21T14:10:26.914Z,3.20
2018-06-21T14:13:02.938Z,3.40
2018-06-21T14:15:38.766Z,3.40
2018-06-21T14:18:13.384Z,4.20
2018-06-21T14:20:49.367Z,6.23
2018-06-21T14:23:24.407Z,4.30
2018-06-21T14:26:02.219Z,2.87
2018-06-21T14:28:38.020Z,2.80
2018-06-21T14:31:14.071Z,5.00
2018-06-21T14:33:50.031Z,3.13
2018-06-21T14:36:25.744Z,2.20
2018-06-21T14:39:01.687Z,2.27
2018-06-21T14:41:37.560Z,2.27
2018-06-21T14:44:13.364Z,2.60
2018-06-21T14:46:49.673Z,2.83
2018-06-21T14:49:24.745Z,2.50
2018-06-21T14:52:00.578Z,3.17
2018-06-21T14:54:36.179Z,2.90
2018-06-21T14:57:10.669Z,2.90
2018-06-21T14:59:45.880Z,2.13
2018-06-21T15:02:21.345Z,2.43
2018-06-21T15:04:57.264Z,2.20
2018-06-21T15:07:32.515Z,2.50
2018-06-21T15:10:07.766Z,2.53
2018-06-21T15:12:44.006Z,2.23
2018-06-21T15:15:19.219Z,2.60
2018-06-21T15:17:54.513Z,2.80
2018-06-21T15:20:30.060Z,2.40
2018-06-21T15:23:05.910Z,2.57
2018-06-21T15:25:41.253Z,2.60
2018-06-21T15:28:16.172Z,2.70
2018-06-21T15:30:52.190Z,2.47
2018-06-21T15:33:27.357Z,2.60
2018-06-21T15:36:03.103Z,2.90
2018-06-21T15:38:38.604Z,2.40
2018-06-21T15:41:15.139Z,2.57
2018-06-21T15:43:50.565Z,2.40
2018-06-21T15:46:26.514Z,2.30
2018-06-21T15:49:03.566Z,2.30
2018-06-21T15:51:39.103Z,2.53
2018-06-21T15:54:14.394Z,2.70
2018-06-21T15:56:53.407Z,2.53
2018-06-21T15:59:28.439Z,2.30
2018-06-21T16:02:05.007Z,2.53
2018-06-21T16:04:42.620Z,2.30
2018-06-21T16:07:18.289Z,2.73
2018-06-21T16:09:54.412Z,2.33
2018-06-21T16:12:31.867Z,2.57
2018-06-21T16:15:07.037Z,2.40
2018-06-21T16:17:45.134Z,2.43
2018-06-21T16:20:22.640Z,2.63
2018-06-21T16:23:00.736Z,2.27
2018-06-21T16:25:38.134Z,2.17
2018-06-21T16:28:14.299Z,2.60
2018-06-21T16:30:50.336Z,2.17
2018-06-21T16:33:27.326Z,2.17
2018-06-21T16:36:05.523Z,2.53
2018-06-21T16:38:43.034Z,2.07
2018-06-21T16:41:18.397Z,2.10
2018-06-21T16:43:54.015Z,2.30
2018-06-21T16:46:29.784Z,1.93
2018-06-21T16:49:06.456Z,2.47
2018-06-21T16:51:43.834Z,2.30
2018-06-21T16:54:20.091Z,2.30
2018-06-21T16:56:54.894Z,2.47
2018-06-21T16:59:30.018Z,2.63
2018-06-21T17:02:06.443Z,2.97
2018-06-21T17:04:43.920Z,2.23
2018-06-21T17:07:19.235Z,2.50
2018-06-21T17:09:54.642Z,2.70
2018-06-21T17:12:29.916Z,3.00
2018-06-21T17:15:07.606Z,2.70
2018-06-21T17:17:44.291Z,3.10
2018-06-21T17:20:20.136Z,2.90
2018-06-21T17:22:57.429Z,3.20
2018-06-21T17:25:33.597Z,3.47
2018-06-21T17:28:10.762Z,3.87
2018-06-21T17:30:46.413Z,3.70
2018-06-21T17:33:26.784Z,3.67
2018-06-21T17:36:04.017Z,3.70
2018-06-21T17:38:40.517Z,3.63
2018-06-21T17:41:17.202Z,3.70
2018-06-21T17:43:53.463Z,3.67
2018-06-21T17:46:28.680Z,3.77
2018-06-21T17:49:04.462Z,4.00
2018-06-21T17:51:39.795Z,3.50
2018-06-21T17:54:16.351Z,4.17
2018-06-21T17:56:52.815Z,3.37
2018-06-21T17:59:29.298Z,3.20
2018-06-21T18:02:06.249Z,3.20
2018-06-21T18:04:44.392Z,3.33
2018-06-21T18:07:22.084Z,3.20
2018-06-21T18:09:58.759Z,2.90
2018-06-21T18:12:35.426Z,4.03
2018-06-21T18:15:12.899Z,3.20
2018-06-21T18:17:48.671Z,3.20
2018-06-21T18:20:24.913Z,3.10
2018-06-21T18:23:03.827Z,3.33
2018-06-21T18:25:45.004Z,2.80
2018-06-21T18:28:21.899Z,2.80
2018-06-21T18:30:57.588Z,3.07
2018-06-21T18:33:32.540Z,3.47
2018-06-21T18:36:07.400Z,2.20
2018-06-21T18:38:43.167Z,2.63
2018-06-21T18:41:17.994Z,2.97
2018-06-21T18:43:55.768Z,2.60
2018-06-21T18:46:34.284Z,2.37
2018-06-21T18:49:10.152Z,2.37
2018-06-21T18:51:45.130Z,2.30
2018-06-21T18:54:19.854Z,2.53
2018-06-21T18:56:55.124Z,2.30
2018-06-21T18:59:30.185Z,1.90
2018-06-21T19:02:05.907Z,2.00
2018-06-21T19:04:44.134Z,2.03
2018-06-21T19:07:24.818Z,2.23
2018-06-21T19:12:10.881Z,2.30
2018-06-21T19:14:46.907Z,2.00
2018-06-21T19:17:22.332Z,1.87
2018-06-21T19:19:58.386Z,1.80
2018-06-21T19:22:33.524Z,1.93
2018-06-21T19:25:08.826Z,2.10
2018-06-21T19:27:43.346Z,1.77
2018-06-21T19:30:18.331Z,1.73
2018-06-21T19:32:53.056Z,1.90
2018-06-21T19:35:28.647Z,2.07
2018-06-21T19:38:03.689Z,1.80
2018-06-21T19:40:38.802Z,2.10
2018-06-21T19:43:14.061Z,2.30
2018-06-21T19:45:49.149Z,2.00
2018-06-21T19:48:24.531Z,1.87
2018-06-21T19:50:59.180Z,2.37
2018-06-21T19:53:34.322Z,2.00
2018-06-21T19:56:12.423Z,2.20
2018-06-21T19:58:47.746Z,1.70
2018-06-21T20:01:23.295Z,2.37
2018-06-21T20:04:00.184Z,2.00
2018-06-21T20:06:36.099Z,2.00
2018-06-21T20:09:13.659Z,1.80
2018-06-21T20:11:49.177Z,1.83
2018-06-21T20:14:25.118Z,1.93
2018-06-21T20:17:02.629Z,2.00
2018-06-21T20:19:43.676Z,2.00
2018-06-21T20:22:21.039Z,1.93
2018-06-21T20:24:56.218Z,1.83
2018-06-21T20:27:33.693Z,1.80
2018-06-21T20:30:09.338Z,2.00
2018-06-21T20:32:44.181Z,1.83
2018-06-21T20:35:18.675Z,2.13
2018-06-21T20:37:53.759Z,1.80
2018-06-21T20:40:29.091Z,1.70
2018-06-21T20:43:05.963Z,2.03
2018-06-21T20:45:42.101Z,2.03
2018-06-21T20:48:17.845Z,6.93
2018-06-21T20:50:53.498Z,2.00
2018-06-21T20:53:28.645Z,1.87
2018-06-21T20:56:06.967Z,1.80
2018-06-21T20:58:42.966Z,1.77
2018-06-21T21:01:17.719Z,2.00
2018-06-21T21:03:54.077Z,1.87
2018-06-21T21:06:29.535Z,2.00
2018-06-21T21:09:06.533Z,2.03
2018-06-21T21:11:43.907Z,1.97
2018-06-21T21:14:19.654Z,1.57
2018-06-21T21:16:54.782Z,1.80
2018-06-21T21:19:29.812Z,1.93
2018-06-21T21:22:05.031Z,1.80
2018-06-21T21:24:41.517Z,1.90
2018-06-21T21:27:16.479Z,1.90
2018-06-21T21:29:52.428Z,1.93
2018-06-21T21:32:27.269Z,1.83
2018-06-21T21:35:03.605Z,2.30
2018-06-21T21:37:39.962Z,1.70
2018-06-21T21:40:15.402Z,1.90
2018-06-21T21:42:51.767Z,1.97
2018-06-21T21:45:27.439Z,1.87
2018-06-21T21:48:04.542Z,2.10
2018-06-21T21:50:41.199Z,1.90
2018-06-21T21:53:16.703Z,1.70
2018-06-21T21:55:53.918Z,1.70
2018-06-21T21:58:29.746Z,1.60
2018-06-21T22:01:05.714Z,1.93
2018-06-21T22:03:40.543Z,1.50
2018-06-21T22:06:15.475Z,1.80
2018-06-21T22:08:51.531Z,1.70
2018-06-21T22:11:27.070Z,2.73
2018-06-21T22:14:05.683Z,2.07
2018-06-21T22:16:43.205Z,2.20
2018-06-21T22:19:19.677Z,1.90
2018-06-21T22:21:55.406Z,2.00
2018-06-21T22:24:31.132Z,1.80
2018-06-21T22:27:06.759Z,2.03
2018-06-21T22:29:42.135Z,1.70
2018-06-21T22:32:17.084Z,1.90
2018-06-21T22:34:54.518Z,1.47
2018-06-21T22:37:32.681Z,1.60
2018-06-21T22:40:09.886Z,2.30
2018-06-21T22:42:45.289Z,2.03
2018-06-21T22:45:22.996Z,2.00
2018-06-21T22:47:58.038Z,2.00
2018-06-21T22:50:33.770Z,1.80
2018-06-21T22:53:10.048Z,1.90
2018-06-21T22:55:46.042Z,2.10
2018-06-21T22:58:22.254Z,2.20
2018-06-21T23:00:57.498Z,2.10
2018-06-21T23:03:34.138Z,1.63
2018-06-21T23:06:09.764Z,2.10
2018-06-21T23:08:44.533Z,1.73
2018-06-21T23:11:20.170Z,1.90
2018-06-21T23:13:55.331Z,2.50
2018-06-21T23:16:32.223Z,1.57
2018-06-21T23:19:18.382Z,1.80
2018-06-21T23:21:55.570Z,2.03
2018-06-21T23:24:32.770Z,2.00
2018-06-21T23:27:08.610Z,1.73
2018-06-21T23:29:45.195Z,1.90
2018-06-21T23:32:21.242Z,1.87
2018-06-21T23:34:57.393Z,1.93
2018-06-21T23:37:33.213Z,2.07
2018-06-21T23:40:08.911Z,1.93
2018-06-21T23:42:44.538Z,2.17
2018-06-21T23:45:20.290Z,1.63
2018-06-21T23:47:56.154Z,1.93
2018-06-21T23:50:32.422Z,1.73
2018-06-21T23:53:07.547Z,1.80
2018-06-21T23:55:43.902Z,1.93
2018-06-21T23:58:20.670Z,2.00
